sensor_id;sensor_type;location;lat;lon;timestamp;P1;durP1;ratioP1;P2;durP2;ratioP2
20844;SDS011;10583;49.084;8.646;2023-05-28T00:00:10;4.23;;;4.23;;
20844;SDS011;10583;49.084;8.646;2023-05-28T00:02:38;3.70;;;3.70;;
20844;SDS011;10583;49.084;8.646;2023-05-28T00:05:05;3.80;;;3.80;;
20844;SDS011;10583;49.084;8.646;2023-05-28T00:07:33;4.03;;;4.03;;
20844;SDS011;10583;49.084;8.646;2023-05-28T00:10:01;4.13;;;4.13;;
20844;SDS011;10583;49.084;8.646;2023-05-28T00:12:28;3.70;;;3.70;;
20844;SDS011;10583;49.084;8.646;2023-05-28T00:14:55;4.10;;;4.10;;
20844;SDS011;10583;49.084;8.646;2023-05-28T00:17:21;4.23;;;4.23;;
20844;SDS011;10583;49.084;8.646;2023-05-28T00:19:48;4.40;;;4.40;;
20844;SDS011;10583;49.084;8.646;2023-05-28T00:22:15;4.20;;;4.20;;
20844;SDS011;10583;49.084;8.646;2023-05-28T00:24:42;4.07;;;4.07;;
20844;SDS011;10583;49.084;8.646;2023-05-28T00:27:10;3.63;;;3.63;;
20844;SDS011;10583;49.084;8.646;2023-05-28T00:29:37;3.73;;;3.73;;
20844;SDS011;10583;49.084;8.646;2023-05-28T00:32:04;4.00;;;4.00;;
20844;SDS011;10583;49.084;8.646;2023-05-28T00:34:31;4.50;;;4.50;;
20844;SDS011;10583;49.084;8.646;2023-05-28T00:36:58;3.60;;;3.60;;
20844;SDS011;10583;49.084;8.646;2023-05-28T00:39:25;4.27;;;4.27;;
20844;SDS011;10583;49.084;8.646;2023-05-28T00:41:58;3.73;;;3.73;;
20844;SDS011;10583;49.084;8.646;2023-05-28T00:44:28;4.53;;;4.53;;
20844;SDS011;10583;49.084;8.646;2023-05-28T00:46:57;4.07;;;4.07;;
20844;SDS011;10583;49.084;8.646;2023-05-28T00:49:25;4.10;;;4.10;;
20844;SDS011;10583;49.084;8.646;2023-05-28T00:51:53;4.47;;;4.47;;
20844;SDS011;10583;49.084;8.646;2023-05-28T00:54:21;3.97;;;3.97;;
20844;SDS011;10583;49.084;8.646;2023-05-28T00:56:48;4.27;;;4.27;;
20844;SDS011;10583;49.084;8.646;2023-05-28T00:59:17;4.17;;;4.17;;
20844;SDS011;10583;49.084;8.646;2023-05-28T01:01:45;4.03;;;4.03;;
20844;SDS011;10583;49.084;8.646;2023-05-28T01:04:13;4.27;;;4.27;;
20844;SDS011;10583;49.084;8.646;2023-05-28T01:06:40;4.17;;;4.17;;
20844;SDS011;10583;49.084;8.646;2023-05-28T01:09:09;4.10;;;4.10;;
20844;SDS011;10583;49.084;8.646;2023-05-28T01:11:37;4.40;;;4.40;;
20844;SDS011;10583;49.084;8.646;2023-05-28T01:14:10;3.93;;;3.93;;
20844;SDS011;10583;49.084;8.646;2023-05-28T01:16:39;4.30;;;4.30;;
20844;SDS011;10583;49.084;8.646;2023-05-28T01:19:11;4.20;;;4.20;;
20844;SDS011;10583;49.084;8.646;2023-05-28T01:21:44;4.40;;;4.40;;
20844;SDS011;10583;49.084;8.646;2023-05-28T01:24:13;4.50;;;4.50;;
20844;SDS011;10583;49.084;8.646;2023-05-28T01:26:41;4.17;;;4.17;;
20844;SDS011;10583;49.084;8.646;2023-05-28T01:29:14;4.70;;;4.70;;
20844;SDS011;10583;49.084;8.646;2023-05-28T01:31:41;3.93;;;3.93;;
20844;SDS011;10583;49.084;8.646;2023-05-28T01:34:09;4.00;;;4.00;;
20844;SDS011;10583;49.084;8.646;2023-05-28T01:36:36;3.97;;;3.97;;
20844;SDS011;10583;49.084;8.646;2023-05-28T01:39:09;4.40;;;4.40;;
20844;SDS011;10583;49.084;8.646;2023-05-28T01:41:42;4.13;;;4.13;;
20844;SDS011;10583;49.084;8.646;2023-05-28T01:44:09;3.97;;;3.97;;
20844;SDS011;10583;49.084;8.646;2023-05-28T01:46:38;4.23;;;4.23;;
20844;SDS011;10583;49.084;8.646;2023-05-28T01:49:05;4.20;;;4.20;;
20844;SDS011;10583;49.084;8.646;2023-05-28T01:51:32;3.90;;;3.90;;
20844;SDS011;10583;49.084;8.646;2023-05-28T01:54:00;4.27;;;4.27;;
20844;SDS011;10583;49.084;8.646;2023-05-28T01:56:26;4.00;;;4.00;;
20844;SDS011;10583;49.084;8.646;2023-05-28T01:58:55;3.90;;;3.90;;
20844;SDS011;10583;49.084;8.646;2023-05-28T02:01:24;4.13;;;4.13;;
20844;SDS011;10583;49.084;8.646;2023-05-28T02:03:54;4.53;;;4.53;;
20844;SDS011;10583;49.084;8.646;2023-05-28T02:06:21;4.00;;;4.00;;
20844;SDS011;10583;49.084;8.646;2023-05-28T02:08:48;4.67;;;4.67;;
20844;SDS011;10583;49.084;8.646;2023-05-28T02:11:16;4.43;;;4.43;;
20844;SDS011;10583;49.084;8.646;2023-05-28T02:13:42;4.50;;;4.50;;
20844;SDS011;10583;49.084;8.646;2023-05-28T02:16:11;4.10;;;4.10;;
20844;SDS011;10583;49.084;8.646;2023-05-28T02:18:42;4.00;;;4.00;;
20844;SDS011;10583;49.084;8.646;2023-05-28T02:21:10;4.23;;;4.23;;
20844;SDS011;10583;49.084;8.646;2023-05-28T02:23:39;4.33;;;4.33;;
20844;SDS011;10583;49.084;8.646;2023-05-28T02:26:08;4.30;;;4.30;;
20844;SDS011;10583;49.084;8.646;2023-05-28T02:28:35;4.33;;;4.33;;
20844;SDS011;10583;49.084;8.646;2023-05-28T02:31:02;3.77;;;3.77;;
20844;SDS011;10583;49.084;8.646;2023-05-28T02:33:31;4.60;;;4.60;;
20844;SDS011;10583;49.084;8.646;2023-05-28T02:35:58;4.27;;;4.27;;
20844;SDS011;10583;49.084;8.646;2023-05-28T02:38:25;3.83;;;3.83;;
20844;SDS011;10583;49.084;8.646;2023-05-28T02:40:51;4.67;;;4.67;;
20844;SDS011;10583;49.084;8.646;2023-05-28T02:43:18;4.33;;;4.33;;
20844;SDS011;10583;49.084;8.646;2023-05-28T02:45:45;4.73;;;4.73;;
20844;SDS011;10583;49.084;8.646;2023-05-28T02:48:12;4.20;;;4.20;;
20844;SDS011;10583;49.084;8.646;2023-05-28T02:50:40;4.53;;;4.53;;
20844;SDS011;10583;49.084;8.646;2023-05-28T02:53:07;4.37;;;4.37;;
20844;SDS011;10583;49.084;8.646;2023-05-28T02:55:34;4.60;;;4.60;;
20844;SDS011;10583;49.084;8.646;2023-05-28T02:58:01;4.50;;;4.50;;
20844;SDS011;10583;49.084;8.646;2023-05-28T03:00:28;4.50;;;4.50;;
20844;SDS011;10583;49.084;8.646;2023-05-28T03:02:55;4.63;;;4.63;;
20844;SDS011;10583;49.084;8.646;2023-05-28T03:05:21;4.37;;;4.37;;
20844;SDS011;10583;49.084;8.646;2023-05-28T03:07:50;4.77;;;4.77;;
20844;SDS011;10583;49.084;8.646;2023-05-28T03:10:17;4.43;;;4.43;;
20844;SDS011;10583;49.084;8.646;2023-05-28T03:12:43;4.10;;;4.10;;
20844;SDS011;10583;49.084;8.646;2023-05-28T03:15:10;4.97;;;4.97;;
20844;SDS011;10583;49.084;8.646;2023-05-28T03:17:37;4.60;;;4.60;;
20844;SDS011;10583;49.084;8.646;2023-05-28T03:20:04;4.57;;;4.57;;
20844;SDS011;10583;49.084;8.646;2023-05-28T03:22:35;4.77;;;4.77;;
20844;SDS011;10583;49.084;8.646;2023-05-28T03:25:04;4.53;;;4.53;;
20844;SDS011;10583;49.084;8.646;2023-05-28T03:27:33;4.97;;;4.97;;
20844;SDS011;10583;49.084;8.646;2023-05-28T03:30:00;4.77;;;4.77;;
20844;SDS011;10583;49.084;8.646;2023-05-28T03:32:29;5.20;;;5.20;;
20844;SDS011;10583;49.084;8.646;2023-05-28T03:34:55;4.57;;;4.57;;
20844;SDS011;10583;49.084;8.646;2023-05-28T03:37:23;4.67;;;4.67;;
20844;SDS011;10583;49.084;8.646;2023-05-28T03:39:51;4.83;;;4.83;;
20844;SDS011;10583;49.084;8.646;2023-05-28T03:42:20;5.10;;;5.10;;
20844;SDS011;10583;49.084;8.646;2023-05-28T03:44:47;5.13;;;5.13;;
20844;SDS011;10583;49.084;8.646;2023-05-28T03:47:14;5.17;;;5.17;;
20844;SDS011;10583;49.084;8.646;2023-05-28T03:49:40;4.57;;;4.57;;
20844;SDS011;10583;49.084;8.646;2023-05-28T03:52:07;5.03;;;5.03;;
20844;SDS011;10583;49.084;8.646;2023-05-28T03:54:35;5.57;;;5.57;;
20844;SDS011;10583;49.084;8.646;2023-05-28T03:57:02;4.97;;;4.97;;
20844;SDS011;10583;49.084;8.646;2023-05-28T03:59:30;4.70;;;4.70;;
20844;SDS011;10583;49.084;8.646;2023-05-28T04:01:57;4.80;;;4.80;;
20844;SDS011;10583;49.084;8.646;2023-05-28T04:04:24;5.20;;;5.20;;
20844;SDS011;10583;49.084;8.646;2023-05-28T04:06:51;4.20;;;4.20;;
20844;SDS011;10583;49.084;8.646;2023-05-28T04:09:18;4.50;;;4.50;;
20844;SDS011;10583;49.084;8.646;2023-05-28T04:11:45;4.40;;;4.40;;
20844;SDS011;10583;49.084;8.646;2023-05-28T04:14:12;4.83;;;4.83;;
20844;SDS011;10583;49.084;8.646;2023-05-28T04:16:40;4.30;;;4.30;;
20844;SDS011;10583;49.084;8.646;2023-05-28T04:19:07;4.10;;;4.10;;
20844;SDS011;10583;49.084;8.646;2023-05-28T04:21:34;4.87;;;4.87;;
20844;SDS011;10583;49.084;8.646;2023-05-28T04:24:01;4.30;;;4.30;;
20844;SDS011;10583;49.084;8.646;2023-05-28T04:26:29;4.37;;;4.37;;
20844;SDS011;10583;49.084;8.646;2023-05-28T04:28:55;4.70;;;4.70;;
20844;SDS011;10583;49.084;8.646;2023-05-28T04:31:25;4.63;;;4.63;;
20844;SDS011;10583;49.084;8.646;2023-05-28T04:33:55;4.50;;;4.50;;
20844;SDS011;10583;49.084;8.646;2023-05-28T04:36:22;4.80;;;4.80;;
20844;SDS011;10583;49.084;8.646;2023-05-28T04:38:54;4.67;;;4.67;;
20844;SDS011;10583;49.084;8.646;2023-05-28T04:41:22;4.60;;;4.60;;
20844;SDS011;10583;49.084;8.646;2023-05-28T04:43:50;4.60;;;4.60;;
20844;SDS011;10583;49.084;8.646;2023-05-28T04:46:17;4.40;;;4.40;;
20844;SDS011;10583;49.084;8.646;2023-05-28T04:48:44;5.17;;;5.17;;
20844;SDS011;10583;49.084;8.646;2023-05-28T04:51:12;4.17;;;4.17;;
20844;SDS011;10583;49.084;8.646;2023-05-28T04:53:39;4.80;;;4.80;;
20844;SDS011;10583;49.084;8.646;2023-05-28T04:56:06;4.87;;;4.87;;
20844;SDS011;10583;49.084;8.646;2023-05-28T04:58:34;4.30;;;4.30;;
20844;SDS011;10583;49.084;8.646;2023-05-28T05:01:01;5.20;;;5.20;;
20844;SDS011;10583;49.084;8.646;2023-05-28T05:03:30;5.20;;;5.20;;
20844;SDS011;10583;49.084;8.646;2023-05-28T05:05:57;4.60;;;4.60;;
20844;SDS011;10583;49.084;8.646;2023-05-28T05:08:25;5.30;;;5.30;;
20844;SDS011;10583;49.084;8.646;2023-05-28T05:10:52;4.73;;;4.73;;
20844;SDS011;10583;49.084;8.646;2023-05-28T05:13:19;5.07;;;5.07;;
20844;SDS011;10583;49.084;8.646;2023-05-28T05:15:45;4.97;;;4.97;;
20844;SDS011;10583;49.084;8.646;2023-05-28T05:18:12;4.83;;;4.83;;
20844;SDS011;10583;49.084;8.646;2023-05-28T05:20:39;4.67;;;4.67;;
20844;SDS011;10583;49.084;8.646;2023-05-28T05:23:06;4.83;;;4.83;;
20844;SDS011;10583;49.084;8.646;2023-05-28T05:25:34;5.20;;;5.20;;
20844;SDS011;10583;49.084;8.646;2023-05-28T05:28:01;4.60;;;4.60;;
20844;SDS011;10583;49.084;8.646;2023-05-28T05:30:28;4.53;;;4.53;;
20844;SDS011;10583;49.084;8.646;2023-05-28T05:32:55;4.50;;;4.50;;
20844;SDS011;10583;49.084;8.646;2023-05-28T05:35:22;4.50;;;4.50;;
20844;SDS011;10583;49.084;8.646;2023-05-28T05:37:49;4.53;;;4.53;;
20844;SDS011;10583;49.084;8.646;2023-05-28T05:40:16;5.00;;;5.00;;
20844;SDS011;10583;49.084;8.646;2023-05-28T05:42:44;4.73;;;4.73;;
20844;SDS011;10583;49.084;8.646;2023-05-28T05:45:11;4.67;;;4.67;;
20844;SDS011;10583;49.084;8.646;2023-05-28T05:47:38;4.50;;;4.50;;
20844;SDS011;10583;49.084;8.646;2023-05-28T05:50:05;4.63;;;4.63;;
20844;SDS011;10583;49.084;8.646;2023-05-28T05:52:32;4.37;;;4.37;;
20844;SDS011;10583;49.084;8.646;2023-05-28T05:54:59;4.87;;;4.87;;
20844;SDS011;10583;49.084;8.646;2023-05-28T05:57:26;4.80;;;4.80;;
20844;SDS011;10583;49.084;8.646;2023-05-28T05:59:54;4.90;;;4.90;;
20844;SDS011;10583;49.084;8.646;2023-05-28T06:02:21;4.70;;;4.70;;
20844;SDS011;10583;49.084;8.646;2023-05-28T06:04:48;4.80;;;4.80;;
20844;SDS011;10583;49.084;8.646;2023-05-28T06:07:15;4.70;;;4.70;;
20844;SDS011;10583;49.084;8.646;2023-05-28T06:09:42;4.83;;;4.83;;
20844;SDS011;10583;49.084;8.646;2023-05-28T06:12:09;4.47;;;4.47;;
20844;SDS011;10583;49.084;8.646;2023-05-28T06:14:36;4.20;;;4.20;;
20844;SDS011;10583;49.084;8.646;2023-05-28T06:17:05;4.50;;;4.50;;
20844;SDS011;10583;49.084;8.646;2023-05-28T06:19:31;4.27;;;4.27;;
20844;SDS011;10583;49.084;8.646;2023-05-28T06:21:59;4.43;;;4.43;;
20844;SDS011;10583;49.084;8.646;2023-05-28T06:24:25;4.57;;;4.57;;
20844;SDS011;10583;49.084;8.646;2023-05-28T06:26:52;4.37;;;4.37;;
20844;SDS011;10583;49.084;8.646;2023-05-28T06:29:19;4.60;;;4.60;;
20844;SDS011;10583;49.084;8.646;2023-05-28T06:31:46;4.17;;;4.17;;
20844;SDS011;10583;49.084;8.646;2023-05-28T06:34:14;4.53;;;4.53;;
20844;SDS011;10583;49.084;8.646;2023-05-28T06:36:41;4.17;;;4.17;;
20844;SDS011;10583;49.084;8.646;2023-05-28T06:39:08;4.47;;;4.47;;
20844;SDS011;10583;49.084;8.646;2023-05-28T06:41:35;4.73;;;4.73;;
20844;SDS011;10583;49.084;8.646;2023-05-28T06:44:02;4.73;;;4.73;;
20844;SDS011;10583;49.084;8.646;2023-05-28T06:46:29;4.20;;;4.20;;
20844;SDS011;10583;49.084;8.646;2023-05-28T06:48:57;4.97;;;4.97;;
20844;SDS011;10583;49.084;8.646;2023-05-28T06:51:25;4.63;;;4.63;;
20844;SDS011;10583;49.084;8.646;2023-05-28T06:53:52;4.83;;;4.83;;
20844;SDS011;10583;49.084;8.646;2023-05-28T06:56:19;4.30;;;4.30;;
20844;SDS011;10583;49.084;8.646;2023-05-28T06:58:47;4.43;;;4.43;;
20844;SDS011;10583;49.084;8.646;2023-05-28T07:01:16;4.53;;;4.53;;
20844;SDS011;10583;49.084;8.646;2023-05-28T07:03:43;4.90;;;4.90;;
20844;SDS011;10583;49.084;8.646;2023-05-28T07:06:10;4.77;;;4.77;;
20844;SDS011;10583;49.084;8.646;2023-05-28T07:08:38;4.67;;;4.67;;
20844;SDS011;10583;49.084;8.646;2023-05-28T07:11:09;4.87;;;4.87;;
20844;SDS011;10583;49.084;8.646;2023-05-28T07:13:36;4.67;;;4.67;;
20844;SDS011;10583;49.084;8.646;2023-05-28T07:16:03;4.70;;;4.70;;
20844;SDS011;10583;49.084;8.646;2023-05-28T07:18:30;4.50;;;4.50;;
20844;SDS011;10583;49.084;8.646;2023-05-28T07:20:57;4.37;;;4.37;;
20844;SDS011;10583;49.084;8.646;2023-05-28T07:23:24;4.40;;;4.40;;
20844;SDS011;10583;49.084;8.646;2023-05-28T07:25:52;4.50;;;4.50;;
20844;SDS011;10583;49.084;8.646;2023-05-28T07:28:19;4.43;;;4.43;;
20844;SDS011;10583;49.084;8.646;2023-05-28T07:30:46;4.77;;;4.77;;
20844;SDS011;10583;49.084;8.646;2023-05-28T07:33:13;4.97;;;4.97;;
20844;SDS011;10583;49.084;8.646;2023-05-28T07:35:40;4.68;;;4.68;;
20844;SDS011;10583;49.084;8.646;2023-05-28T07:38:07;4.45;;;4.45;;
20844;SDS011;10583;49.084;8.646;2023-05-28T07:40:35;4.95;;;4.95;;
20844;SDS011;10583;49.084;8.646;2023-05-28T07:43:04;4.43;;;4.43;;
20844;SDS011;10583;49.084;8.646;2023-05-28T07:45:30;4.40;;;4.40;;
20844;SDS011;10583;49.084;8.646;2023-05-28T07:47:57;4.28;;;4.28;;
20844;SDS011;10583;49.084;8.646;2023-05-28T07:50:24;4.28;;;4.28;;
20844;SDS011;10583;49.084;8.646;2023-05-28T07:52:51;4.43;;;4.43;;
20844;SDS011;10583;49.084;8.646;2023-05-28T07:55:18;4.40;;;4.40;;
20844;SDS011;10583;49.084;8.646;2023-05-28T07:57:44;4.20;;;4.20;;
20844;SDS011;10583;49.084;8.646;2023-05-28T08:00:13;4.18;;;4.18;;
20844;SDS011;10583;49.084;8.646;2023-05-28T08:02:41;4.63;;;4.63;;
20844;SDS011;10583;49.084;8.646;2023-05-28T08:05:08;4.50;;;4.50;;
20844;SDS011;10583;49.084;8.646;2023-05-28T08:07:35;4.63;;;4.63;;
20844;SDS011;10583;49.084;8.646;2023-05-28T08:10:02;4.20;;;4.20;;
20844;SDS011;10583;49.084;8.646;2023-05-28T08:12:29;4.35;;;4.35;;
20844;SDS011;10583;49.084;8.646;2023-05-28T08:14:56;4.53;;;4.53;;
20844;SDS011;10583;49.084;8.646;2023-05-28T08:17:24;4.40;;;4.40;;
20844;SDS011;10583;49.084;8.646;2023-05-28T08:19:50;4.38;;;4.38;;
20844;SDS011;10583;49.084;8.646;2023-05-28T08:22:17;4.13;;;4.13;;
20844;SDS011;10583;49.084;8.646;2023-05-28T08:24:45;4.50;;;4.50;;
20844;SDS011;10583;49.084;8.646;2023-05-28T08:27:11;4.38;;;4.38;;
20844;SDS011;10583;49.084;8.646;2023-05-28T08:29:38;4.60;;;4.60;;
20844;SDS011;10583;49.084;8.646;2023-05-28T08:32:05;4.43;;;4.43;;
20844;SDS011;10583;49.084;8.646;2023-05-28T08:34:34;4.05;;;4.05;;
20844;SDS011;10583;49.084;8.646;2023-05-28T08:37:01;4.25;;;4.25;;
20844;SDS011;10583;49.084;8.646;2023-05-28T08:39:29;4.55;;;4.55;;
20844;SDS011;10583;49.084;8.646;2023-05-28T08:41:56;4.57;;;4.57;;
20844;SDS011;10583;49.084;8.646;2023-05-28T08:44:22;4.63;;;4.63;;
20844;SDS011;10583;49.084;8.646;2023-05-28T08:46:49;4.55;;;4.55;;
20844;SDS011;10583;49.084;8.646;2023-05-28T08:49:17;4.75;;;4.75;;
20844;SDS011;10583;49.084;8.646;2023-05-28T08:51:46;4.45;;;4.45;;
20844;SDS011;10583;49.084;8.646;2023-05-28T08:54:18;4.47;;;4.47;;
20844;SDS011;10583;49.084;8.646;2023-05-28T08:56:45;4.38;;;4.38;;
20844;SDS011;10583;49.084;8.646;2023-05-28T08:59:12;4.60;;;4.60;;
20844;SDS011;10583;49.084;8.646;2023-05-28T09:01:41;5.15;;;5.15;;
20844;SDS011;10583;49.084;8.646;2023-05-28T09:04:08;4.38;;;4.38;;
20844;SDS011;10583;49.084;8.646;2023-05-28T09:06:35;5.28;;;5.28;;
20844;SDS011;10583;49.084;8.646;2023-05-28T09:09:04;4.22;;;4.22;;
20844;SDS011;10583;49.084;8.646;2023-05-28T09:11:32;4.35;;;4.35;;
20844;SDS011;10583;49.084;8.646;2023-05-28T09:14:02;4.65;;;4.65;;
20844;SDS011;10583;49.084;8.646;2023-05-28T09:16:35;5.13;;;5.13;;
20844;SDS011;10583;49.084;8.646;2023-05-28T09:19:08;4.78;;;4.78;;
20844;SDS011;10583;49.084;8.646;2023-05-28T09:21:36;4.60;;;4.60;;
20844;SDS011;10583;49.084;8.646;2023-05-28T09:24:04;4.18;;;4.18;;
20844;SDS011;10583;49.084;8.646;2023-05-28T09:26:31;4.22;;;4.22;;
20844;SDS011;10583;49.084;8.646;2023-05-28T09:28:59;4.30;;;4.30;;
20844;SDS011;10583;49.084;8.646;2023-05-28T09:31:28;4.75;;;4.75;;
20844;SDS011;10583;49.084;8.646;2023-05-28T09:33:58;4.25;;;4.25;;
20844;SDS011;10583;49.084;8.646;2023-05-28T09:36:26;4.57;;;4.57;;
20844;SDS011;10583;49.084;8.646;2023-05-28T09:38:54;4.63;;;4.63;;
20844;SDS011;10583;49.084;8.646;2023-05-28T09:41:23;4.85;;;4.85;;
20844;SDS011;10583;49.084;8.646;2023-05-28T09:43:55;4.35;;;4.35;;
20844;SDS011;10583;49.084;8.646;2023-05-28T09:46:26;3.95;;;3.95;;
20844;SDS011;10583;49.084;8.646;2023-05-28T09:48:54;4.45;;;4.45;;
20844;SDS011;10583;49.084;8.646;2023-05-28T09:51:22;4.07;;;4.07;;
20844;SDS011;10583;49.084;8.646;2023-05-28T09:53:51;4.22;;;4.22;;
20844;SDS011;10583;49.084;8.646;2023-05-28T09:56:23;4.72;;;4.72;;
20844;SDS011;10583;49.084;8.646;2023-05-28T09:58:54;4.57;;;4.57;;
20844;SDS011;10583;49.084;8.646;2023-05-28T10:01:24;4.18;;;4.18;;
20844;SDS011;10583;49.084;8.646;2023-05-28T10:03:55;4.30;;;4.30;;
20844;SDS011;10583;49.084;8.646;2023-05-28T10:06:27;4.20;;;4.20;;
20844;SDS011;10583;49.084;8.646;2023-05-28T10:08:55;4.07;;;4.07;;
20844;SDS011;10583;49.084;8.646;2023-05-28T10:11:27;4.25;;;4.25;;
20844;SDS011;10583;49.084;8.646;2023-05-28T10:13:56;4.03;;;4.03;;
20844;SDS011;10583;49.084;8.646;2023-05-28T10:16:23;4.80;;;4.80;;
20844;SDS011;10583;49.084;8.646;2023-05-28T10:18:50;4.20;;;4.20;;
20844;SDS011;10583;49.084;8.646;2023-05-28T10:21:19;3.80;;;3.80;;
20844;SDS011;10583;49.084;8.646;2023-05-28T10:23:46;4.13;;;4.13;;
20844;SDS011;10583;49.084;8.646;2023-05-28T10:26:13;4.03;;;4.03;;
20844;SDS011;10583;49.084;8.646;2023-05-28T10:28:42;4.45;;;4.45;;
20844;SDS011;10583;49.084;8.646;2023-05-28T10:31:09;3.80;;;3.80;;
20844;SDS011;10583;49.084;8.646;2023-05-28T10:33:39;4.05;;;4.05;;
20844;SDS011;10583;49.084;8.646;2023-05-28T10:36:08;4.03;;;4.03;;
20844;SDS011;10583;49.084;8.646;2023-05-28T10:38:40;4.50;;;4.50;;
20844;SDS011;10583;49.084;8.646;2023-05-28T10:41:09;4.15;;;4.15;;
20844;SDS011;10583;49.084;8.646;2023-05-28T10:43:44;4.78;;;4.78;;
20844;SDS011;10583;49.084;8.646;2023-05-28T10:46:12;4.05;;;4.05;;
20844;SDS011;10583;49.084;8.646;2023-05-28T10:48:43;4.25;;;4.25;;
20844;SDS011;10583;49.084;8.646;2023-05-28T10:51:45;4.35;;;4.35;;
20844;SDS011;10583;49.084;8.646;2023-05-28T10:54:20;3.90;;;3.90;;
20844;SDS011;10583;49.084;8.646;2023-05-28T10:59:46;3.70;;;3.70;;
20844;SDS011;10583;49.084;8.646;2023-05-28T11:02:17;4.07;;;4.07;;
20844;SDS011;10583;49.084;8.646;2023-05-28T11:04:49;4.20;;;4.20;;
20844;SDS011;10583;49.084;8.646;2023-05-28T11:07:17;4.20;;;4.20;;
20844;SDS011;10583;49.084;8.646;2023-05-28T11:09:47;4.50;;;4.50;;
20844;SDS011;10583;49.084;8.646;2023-05-28T11:12:14;4.13;;;4.13;;
20844;SDS011;10583;49.084;8.646;2023-05-28T11:14:41;4.28;;;4.28;;
20844;SDS011;10583;49.084;8.646;2023-05-28T11:17:10;3.70;;;3.70;;
20844;SDS011;10583;49.084;8.646;2023-05-28T11:19:41;4.40;;;4.40;;
20844;SDS011;10583;49.084;8.646;2023-05-28T11:22:09;4.70;;;4.70;;
20844;SDS011;10583;49.084;8.646;2023-05-28T11:24:50;4.47;;;4.47;;
20844;SDS011;10583;49.084;8.646;2023-05-28T11:27:18;4.30;;;4.30;;
20844;SDS011;10583;49.084;8.646;2023-05-28T11:29:46;4.15;;;4.15;;
20844;SDS011;10583;49.084;8.646;2023-05-28T11:32:14;4.10;;;4.10;;
20844;SDS011;10583;49.084;8.646;2023-05-28T11:34:44;4.30;;;4.30;;
20844;SDS011;10583;49.084;8.646;2023-05-28T11:37:13;3.63;;;3.63;;
20844;SDS011;10583;49.084;8.646;2023-05-28T11:39:47;4.18;;;4.18;;
20844;SDS011;10583;49.084;8.646;2023-05-28T11:42:14;3.75;;;3.75;;
20844;SDS011;10583;49.084;8.646;2023-05-28T11:44:42;3.80;;;3.80;;
20844;SDS011;10583;49.084;8.646;2023-05-28T11:47:10;4.28;;;4.28;;
20844;SDS011;10583;49.084;8.646;2023-05-28T11:49:38;4.40;;;4.40;;
20844;SDS011;10583;49.084;8.646;2023-05-28T11:52:09;4.40;;;4.40;;
20844;SDS011;10583;49.084;8.646;2023-05-28T11:54:36;4.03;;;4.03;;
20844;SDS011;10583;49.084;8.646;2023-05-28T11:57:03;3.60;;;3.60;;
20844;SDS011;10583;49.084;8.646;2023-05-28T11:59:31;4.20;;;4.20;;
20844;SDS011;10583;49.084;8.646;2023-05-28T12:02:08;4.03;;;4.03;;
20844;SDS011;10583;49.084;8.646;2023-05-28T12:04:36;3.92;;;3.92;;
20844;SDS011;10583;49.084;8.646;2023-05-28T12:07:04;4.43;;;4.43;;
20844;SDS011;10583;49.084;8.646;2023-05-28T12:09:31;3.90;;;3.90;;
20844;SDS011;10583;49.084;8.646;2023-05-28T12:12:01;4.25;;;4.25;;
20844;SDS011;10583;49.084;8.646;2023-05-28T12:14:29;4.00;;;4.00;;
20844;SDS011;10583;49.084;8.646;2023-05-28T12:17:03;4.05;;;4.05;;
20844;SDS011;10583;49.084;8.646;2023-05-28T12:19:31;4.35;;;4.35;;
20844;SDS011;10583;49.084;8.646;2023-05-28T12:21:58;4.18;;;4.18;;
20844;SDS011;10583;49.084;8.646;2023-05-28T12:24:26;3.83;;;3.83;;
20844;SDS011;10583;49.084;8.646;2023-05-28T12:26:54;4.10;;;4.10;;
20844;SDS011;10583;49.084;8.646;2023-05-28T12:29:21;3.88;;;3.88;;
20844;SDS011;10583;49.084;8.646;2023-05-28T12:31:56;4.40;;;4.40;;
20844;SDS011;10583;49.084;8.646;2023-05-28T12:34:23;4.13;;;4.13;;
20844;SDS011;10583;49.084;8.646;2023-05-28T12:36:50;3.65;;;3.65;;
20844;SDS011;10583;49.084;8.646;2023-05-28T12:39:17;4.25;;;4.25;;
20844;SDS011;10583;49.084;8.646;2023-05-28T12:41:45;3.78;;;3.78;;
20844;SDS011;10583;49.084;8.646;2023-05-28T12:44:11;3.75;;;3.75;;
20844;SDS011;10583;49.084;8.646;2023-05-28T12:46:38;4.30;;;4.30;;
20844;SDS011;10583;49.084;8.646;2023-05-28T12:49:05;3.97;;;3.97;;
20844;SDS011;10583;49.084;8.646;2023-05-28T12:51:31;4.15;;;4.15;;
20844;SDS011;10583;49.084;8.646;2023-05-28T12:53:58;4.30;;;4.30;;
20844;SDS011;10583;49.084;8.646;2023-05-28T12:56:26;4.15;;;4.15;;
20844;SDS011;10583;49.084;8.646;2023-05-28T12:58:54;4.57;;;4.57;;
20844;SDS011;10583;49.084;8.646;2023-05-28T13:01:20;4.30;;;4.30;;
20844;SDS011;10583;49.084;8.646;2023-05-28T13:03:48;4.05;;;4.05;;
20844;SDS011;10583;49.084;8.646;2023-05-28T13:06:16;4.13;;;4.13;;
20844;SDS011;10583;49.084;8.646;2023-05-28T13:08:42;4.20;;;4.20;;
20844;SDS011;10583;49.084;8.646;2023-05-28T13:11:09;4.25;;;4.25;;
20844;SDS011;10583;49.084;8.646;2023-05-28T13:13:37;4.20;;;4.20;;
20844;SDS011;10583;49.084;8.646;2023-05-28T13:16:05;4.15;;;4.15;;
20844;SDS011;10583;49.084;8.646;2023-05-28T13:18:32;4.45;;;4.45;;
20844;SDS011;10583;49.084;8.646;2023-05-28T13:20:58;4.13;;;4.13;;
20844;SDS011;10583;49.084;8.646;2023-05-28T13:23:25;4.32;;;4.32;;
20844;SDS011;10583;49.084;8.646;2023-05-28T13:25:52;5.10;;;5.10;;
20844;SDS011;10583;49.084;8.646;2023-05-28T13:28:19;4.55;;;4.55;;
20844;SDS011;10583;49.084;8.646;2023-05-28T13:30:45;4.95;;;4.95;;
20844;SDS011;10583;49.084;8.646;2023-05-28T13:33:13;4.97;;;4.97;;
20844;SDS011;10583;49.084;8.646;2023-05-28T13:35:40;4.70;;;4.70;;
20844;SDS011;10583;49.084;8.646;2023-05-28T13:38:07;4.72;;;4.72;;
20844;SDS011;10583;49.084;8.646;2023-05-28T13:40:34;4.60;;;4.60;;
20844;SDS011;10583;49.084;8.646;2023-05-28T13:43:01;4.65;;;4.65;;
20844;SDS011;10583;49.084;8.646;2023-05-28T13:45:28;4.47;;;4.47;;
20844;SDS011;10583;49.084;8.646;2023-05-28T13:47:56;4.25;;;4.25;;
20844;SDS011;10583;49.084;8.646;2023-05-28T13:50:24;5.10;;;5.10;;
20844;SDS011;10583;49.084;8.646;2023-05-28T13:52:51;4.22;;;4.22;;
20844;SDS011;10583;49.084;8.646;2023-05-28T13:55:18;4.50;;;4.50;;
20844;SDS011;10583;49.084;8.646;2023-05-28T13:57:45;4.88;;;4.88;;
20844;SDS011;10583;49.084;8.646;2023-05-28T14:00:12;5.00;;;5.00;;
20844;SDS011;10583;49.084;8.646;2023-05-28T14:02:40;4.90;;;4.90;;
20844;SDS011;10583;49.084;8.646;2023-05-28T14:05:08;5.32;;;5.32;;
20844;SDS011;10583;49.084;8.646;2023-05-28T14:07:36;5.57;;;5.57;;
20844;SDS011;10583;49.084;8.646;2023-05-28T14:10:02;5.15;;;5.15;;
20844;SDS011;10583;49.084;8.646;2023-05-28T14:12:30;4.85;;;4.85;;
20844;SDS011;10583;49.084;8.646;2023-05-28T14:14:56;5.38;;;5.38;;
20844;SDS011;10583;49.084;8.646;2023-05-28T14:17:23;5.20;;;5.20;;
20844;SDS011;10583;49.084;8.646;2023-05-28T14:19:50;4.95;;;4.95;;
20844;SDS011;10583;49.084;8.646;2023-05-28T14:22:17;4.82;;;4.82;;
20844;SDS011;10583;49.084;8.646;2023-05-28T14:24:45;5.32;;;5.32;;
20844;SDS011;10583;49.084;8.646;2023-05-28T14:27:11;5.00;;;5.00;;
20844;SDS011;10583;49.084;8.646;2023-05-28T14:29:38;5.95;;;5.95;;
20844;SDS011;10583;49.084;8.646;2023-05-28T14:32:05;5.40;;;5.40;;
20844;SDS011;10583;49.084;8.646;2023-05-28T14:34:32;5.15;;;5.15;;
20844;SDS011;10583;49.084;8.646;2023-05-28T14:36:58;5.65;;;5.65;;
20844;SDS011;10583;49.084;8.646;2023-05-28T14:39:25;5.95;;;5.95;;
20844;SDS011;10583;49.084;8.646;2023-05-28T14:41:53;6.28;;;6.28;;
20844;SDS011;10583;49.084;8.646;2023-05-28T14:44:20;5.90;;;5.90;;
20844;SDS011;10583;49.084;8.646;2023-05-28T14:46:47;6.10;;;6.10;;
20844;SDS011;10583;49.084;8.646;2023-05-28T14:49:13;6.05;;;6.05;;
20844;SDS011;10583;49.084;8.646;2023-05-28T14:51:40;5.60;;;5.60;;
20844;SDS011;10583;49.084;8.646;2023-05-28T14:54:07;5.38;;;5.38;;